Time;durP1;ratioP1;P1;durP2;ratioP2;P2;SDS_P1;SDS_P2;PMS_P1;PMS_P2;Temp;Humidity;BMP_temperature;BMP_pressure;BME280_temperature;BME280_humidity;BME280_pressure;Samples;Min_cycle;Max_cycle;Signal;HPM_P1;HPM_P2
2023/12/19 00:00:12;;;;;;;;;24.75;18.75;;;;;-146.67;59.74;77269.94;5067552;28;38032;-72
2023/12/19 00:02:39;;;;;;;;;24.25;17.50;;;;;-146.67;59.43;77273.94;5080493;28;38221;-72
2023/12/19 00:05:08;;;;;;;;;25.75;17.25;;;;;-146.67;59.68;77261.94;5089745;28;38423;-72
2023/12/19 00:07:33;;;;;;;;;18.25;18.25;;;;;-146.67;59.48;77259.94;5060434;28;38414;-72
2023/12/19 00:09:59;;;;;;;;;23.25;21.00;;;;;-146.67;59.77;77261.94;5058784;28;38267;-72
2023/12/19 00:12:24;;;;;;;;;23.00;20.50;;;;;-146.67;59.51;77251.97;5086396;27;38444;-72
2023/12/19 00:14:49;;;;;;;;;16.75;16.25;;;;;-146.67;59.46;77239.97;5078697;28;38771;-72
2023/12/19 00:17:16;;;;;;;;;25.00;17.50;;;;;-146.67;59.33;77235.97;5079868;28;38511;-72
2023/12/19 00:19:43;;;;;;;;;24.25;17.00;;;;;-146.67;59.32;77233.97;5096472;28;38464;-72
2023/12/19 00:22:11;;;;;;;;;23.75;19.00;;;;;-146.67;58.85;77237.97;5100215;27;37742;-72
2023/12/19 00:24:38;;;;;;;;;25.25;18.75;;;;;-146.67;58.86;77241.97;5099015;27;38251;-72
2023/12/19 00:27:03;;;;;;;;;20.00;17.25;;;;;-146.67;58.97;77237.97;5100307;27;38372;-72
2023/12/19 00:29:28;;;;;;;;;15.25;15.25;;;;;-146.67;58.77;77243.97;5099715;28;38330;-72
2023/12/19 00:31:54;;;;;;;;;19.75;14.00;;;;;-146.67;58.88;77241.97;5099780;27;38588;-71
2023/12/19 00:34:19;;;;;;;;;18.00;14.50;;;;;-146.67;58.69;77243.97;5099850;27;38288;-72
2023/12/19 00:36:44;;;;;;;;;30.50;20.50;;;;;-146.67;58.90;77239.97;5100433;27;38362;-72
2023/12/19 00:39:10;;;;;;;;;22.75;16.75;;;;;-146.67;58.85;77241.97;5099765;28;38760;-72
2023/12/19 00:41:35;;;;;;;;;24.50;15.25;;;;;-146.67;58.98;77233.97;5100033;27;37965;-72
2023/12/19 00:44:01;;;;;;;;;18.50;14.00;;;;;-146.67;58.73;77231.97;5100395;27;38330;-72
2023/12/19 00:46:27;;;;;;;;;17.75;17.00;;;;;-146.67;58.66;77230.00;5100058;27;37752;-72
2023/12/19 00:48:52;;;;;;;;;18.75;14.50;;;;;-146.67;58.86;77228.00;5099042;28;38330;-72
2023/12/19 00:51:17;;;;;;;;;30.50;17.00;;;;;-146.67;58.80;77228.00;5099756;28;39050;-72
2023/12/19 00:53:43;;;;;;;;;21.00;16.00;;;;;-146.67;58.58;77226.00;5098602;28;53666;-72
2023/12/19 00:56:09;;;;;;;;;18.75;14.25;;;;;-146.67;58.91;77230.00;5097459;28;61351;-72
2023/12/19 00:58:36;;;;;;;;;16.75;15.00;;;;;-146.67;58.82;77237.97;5115280;27;40063;-72
2023/12/19 01:01:01;;;;;;;;;20.25;17.50;;;;;-146.67;58.66;77245.97;5098569;27;43211;-72
2023/12/19 01:03:27;;;;;;;;;23.00;17.50;;;;;-146.67;59.13;77253.97;5086908;27;61796;-72
2023/12/19 01:05:52;;;;;;;;;19.25;16.00;;;;;-146.67;58.91;77241.97;5102872;27;61931;-72
2023/12/19 01:08:18;;;;;;;;;21.25;17.25;;;;;-146.67;58.99;77241.97;5085366;27;61971;-72
2023/12/19 01:10:43;;;;;;;;;21.75;13.50;;;;;-146.67;59.26;77255.97;5085762;27;61756;-71
2023/12/19 01:13:08;;;;;;;;;22.75;17.25;;;;;-146.67;59.04;77251.97;5086846;27;61755;-72
2023/12/19 01:15:33;;;;;;;;;17.50;15.25;;;;;-146.67;59.17;77255.97;5100940;27;61808;-72
2023/12/19 01:17:59;;;;;;;;;22.50;17.50;;;;;-146.67;59.05;77249.97;5084247;27;62416;-72
2023/12/19 01:20:24;;;;;;;;;24.00;18.00;;;;;-146.67;59.15;77251.97;5083924;27;61810;-72
2023/12/19 01:22:49;;;;;;;;;22.00;21.00;;;;;-146.67;59.13;77255.97;5085084;27;62083;-72
2023/12/19 01:25:15;;;;;;;;;21.50;14.50;;;;;-146.67;59.19;77255.97;5085288;27;62295;-72
2023/12/19 01:27:40;;;;;;;;;20.50;19.00;;;;;-146.67;59.06;77255.97;5084445;28;62603;-72
2023/12/19 01:30:06;;;;;;;;;28.50;18.00;;;;;-146.67;59.32;77245.97;5100553;27;62277;-72
2023/12/19 01:32:31;;;;;;;;;20.00;14.75;;;;;-146.67;59.22;77239.97;5084537;28;61866;-72
2023/12/19 01:34:57;;;;;;;;;22.75;17.25;;;;;-146.67;59.30;77235.97;5085234;28;61974;-72
2023/12/19 01:37:22;;;;;;;;;18.00;15.25;;;;;-146.67;59.21;77233.97;5082798;28;64878;-71
2023/12/19 01:39:47;;;;;;;;;17.25;14.75;;;;;-146.67;59.29;77218.00;5084769;27;61777;-72
2023/12/19 01:42:13;;;;;;;;;32.50;22.75;;;;;-146.67;59.41;77216.00;5100286;27;61999;-71
2023/12/19 01:44:38;;;;;;;;;22.25;19.75;;;;;-146.67;59.36;77196.03;5085106;27;62167;-72
2023/12/19 01:47:04;;;;;;;;;22.25;17.25;;;;;-146.67;59.33;77202.00;5099571;27;63521;-72
2023/12/19 01:49:29;;;;;;;;;25.50;17.75;;;;;-146.67;59.05;77206.00;5083692;28;61825;-72
2023/12/19 01:51:55;;;;;;;;;20.75;18.50;;;;;-146.67;59.43;77202.00;5085781;28;61699;-72
2023/12/19 01:54:21;;;;;;;;;23.75;18.00;;;;;-146.67;59.03;77196.03;5089238;28;60935;-72
2023/12/19 01:56:47;;;;;;;;;19.50;15.75;;;;;-146.67;59.05;77206.00;5097294;28;61338;-72
2023/12/19 01:59:14;;;;;;;;;19.25;15.00;;;;;-146.67;58.94;77200.03;5101329;27;45997;-72
2023/12/19 02:01:39;;;;;;;;;17.50;14.00;;;;;-146.67;59.35;77206.00;5102419;27;43228;-72
2023/12/19 02:04:06;;;;;;;;;21.75;18.50;;;;;-146.67;59.15;77198.03;5102920;27;38494;-72
2023/12/19 02:06:34;;;;;;;;;22.25;16.50;;;;;-146.67;59.08;77202.00;5108033;27;38496;-72
2023/12/19 02:08:59;;;;;;;;;25.25;19.75;;;;;-146.67;59.40;77210.00;5122766;27;40521;-72
2023/12/19 02:11:25;;;;;;;;;27.00;19.00;;;;;-146.67;59.15;77214.00;5106144;27;38407;-72
2023/12/19 02:13:50;;;;;;;;;25.50;16.00;;;;;-146.67;59.45;77212.00;5100716;27;38343;-72
2023/12/19 02:16:15;;;;;;;;;19.25;13.25;;;;;-146.67;59.12;77208.00;5100759;27;37880;-72
2023/12/19 02:18:43;;;;;;;;;21.25;17.25;;;;;-146.67;59.10;77208.00;5101863;27;38668;-72
2023/12/19 02:21:08;;;;;;;;;26.25;18.25;;;;;-146.67;59.22;77196.03;5117777;27;38355;-72
2023/12/19 02:23:33;;;;;;;;;28.00;18.00;;;;;-146.67;59.23;77194.03;5102216;27;39065;-72
2023/12/19 02:25:59;;;;;;;;;18.75;17.50;;;;;-146.67;59.19;77190.03;5101533;27;38416;-72
2023/12/19 02:28:24;;;;;;;;;20.25;18.25;;;;;-146.67;59.14;77188.03;5102230;27;38494;-72
2023/12/19 02:30:50;;;;;;;;;19.25;16.50;;;;;-146.67;59.01;77176.03;5117141;27;38384;-72
2023/12/19 02:33:15;;;;;;;;;27.50;21.75;;;;;-146.67;58.69;77162.06;5102440;27;38175;-72
2023/12/19 02:35:41;;;;;;;;;22.50;18.50;;;;;-146.67;58.94;77154.06;5117345;27;40218;-72
2023/12/19 02:38:06;;;;;;;;;26.50;18.00;;;;;-146.67;59.05;77150.06;5101654;27;37734;-72
2023/12/19 02:40:32;;;;;;;;;19.50;14.75;;;;;-146.67;59.06;77140.09;5101790;28;38383;-72
2023/12/19 02:42:57;;;;;;;;;21.75;15.50;;;;;-146.67;58.95;77140.09;5102507;27;38582;-72
2023/12/19 02:45:23;;;;;;;;;15.25;11.50;;;;;-146.67;58.86;77140.09;5093324;27;60570;-72
2023/12/19 02:47:48;;;;;;;;;22.00;17.50;;;;;-146.67;58.77;77132.09;5089666;27;61131;-72
2023/12/19 02:50:14;;;;;;;;;18.00;18.00;;;;;-146.67;58.65;77124.09;5084359;27;61886;-72
2023/12/19 02:52:39;;;;;;;;;21.00;19.75;;;;;-146.67;58.62;77116.09;5082446;28;62169;-72
2023/12/19 02:55:05;;;;;;;;;17.25;13.50;;;;;-146.67;58.83;77108.13;5083126;27;62882;-72
2023/12/19 02:57:30;;;;;;;;;20.75;16.25;;;;;-146.67;58.52;77096.13;5083473;28;61912;-72
2023/12/19 02:59:56;;;;;;;;;16.25;14.75;;;;;-146.67;58.75;77098.13;5082836;27;61781;-72
2023/12/19 03:02:21;;;;;;;;;19.50;14.00;;;;;-146.67;58.62;77096.13;5084076;27;61926;-72
2023/12/19 03:04:47;;;;;;;;;15.75;13.00;;;;;-146.67;58.42;77092.13;5082700;28;61826;-72
2023/12/19 03:07:13;;;;;;;;;24.00;16.25;;;;;-146.67;58.71;77096.13;5083694;27;61996;-72
2023/12/19 03:09:38;;;;;;;;;19.50;16.00;;;;;-146.67;58.56;77096.13;5083646;27;61932;-72
2023/12/19 03:12:06;;;;;;;;;19.00;14.50;;;;;-146.67;58.91;77114.13;5083264;27;61885;-72
2023/12/19 03:14:33;;;;;;;;;16.50;14.25;;;;;-146.67;58.68;77098.13;5082607;28;61955;-72
2023/12/19 03:16:58;;;;;;;;;22.25;18.00;;;;;-146.67;59.06;77084.16;5083241;27;61737;-72
2023/12/19 03:19:24;;;;;;;;;20.25;13.75;;;;;-146.67;58.99;77072.16;5082758;28;61988;-72
2023/12/19 03:21:49;;;;;;;;;20.50;15.25;;;;;-146.67;58.86;77078.16;5083701;27;61771;-72
2023/12/19 03:24:15;;;;;;;;;19.25;17.00;;;;;-146.67;59.10;77072.16;5081234;28;64869;-72
2023/12/19 03:26:40;;;;;;;;;21.75;19.25;;;;;-146.67;59.10;77076.16;5082894;27;61790;-72
2023/12/19 03:29:05;;;;;;;;;23.25;15.25;;;;;-146.67;59.02;77068.16;5082690;27;61764;-72
2023/12/19 03:31:31;;;;;;;;;20.25;19.00;;;;;-146.67;58.92;77064.16;5083373;27;61954;-72
2023/12/19 03:33:57;;;;;;;;;17.25;14.00;;;;;-146.67;58.98;77056.19;5082479;27;61950;-72
2023/12/19 03:36:22;;;;;;;;;23.75;17.75;;;;;-146.67;58.76;77056.19;5083152;27;61884;-72
2023/12/19 03:38:49;;;;;;;;;17.50;13.50;;;;;-146.67;59.03;77054.19;5083069;27;61979;-72
2023/12/19 03:41:14;;;;;;;;;21.00;16.00;;;;;-146.67;58.88;77056.19;5083019;27;61957;-72
2023/12/19 03:43:39;;;;;;;;;21.00;18.75;;;;;-146.67;58.60;77056.19;5082310;27;61810;-72
2023/12/19 03:46:07;;;;;;;;;18.25;18.00;;;;;-146.67;58.79;77058.19;5082630;27;61811;-72
2023/12/19 03:48:34;;;;;;;;;19.50;14.50;;;;;-146.67;58.76;77056.19;5082777;27;61862;-72
2023/12/19 03:51:00;;;;;;;;;18.75;14.25;;;;;-146.67;58.69;77052.19;5081977;27;61862;-72
2023/12/19 03:53:26;;;;;;;;;18.25;15.75;;;;;-146.67;58.69;77048.19;5082141;28;62680;-72
2023/12/19 03:55:52;;;;;;;;;18.00;15.50;;;;;-146.67;58.81;77050.19;5081039;28;61985;-72
2023/12/19 03:58:18;;;;;;;;;19.50;14.00;;;;;-146.67;58.47;77046.19;5082413;28;61844;-72
2023/12/19 04:00:43;;;;;;;;;19.50;15.25;;;;;-146.67;59.03;77044.19;5082839;27;61971;-72
2023/12/19 04:03:08;;;;;;;;;20.00;17.25;;;;;-146.67;58.80;77042.19;5081975;27;62785;-72
2023/12/19 04:05:34;;;;;;;;;20.00;16.75;;;;;-146.67;58.79;77034.22;5082712;27;61925;-72
2023/12/19 04:08:00;;;;;;;;;18.00;15.50;;;;;-146.67;58.69;77030.22;5082636;27;61773;-72
2023/12/19 04:10:25;;;;;;;;;17.50;14.50;;;;;-146.67;58.43;77018.22;5082505;27;61894;-72
2023/12/19 04:12:51;;;;;;;;;14.00;14.00;;;;;-146.67;58.63;77010.22;5081245;28;62603;-72
2023/12/19 04:15:16;;;;;;;;;20.00;14.00;;;;;-146.67;58.78;77000.25;5082006;27;61824;-72
2023/12/19 04:17:41;;;;;;;;;24.00;19.75;;;;;-146.67;58.59;76992.25;5098366;27;62238;-72
2023/12/19 04:20:07;;;;;;;;;24.75;15.25;;;;;-146.67;58.93;76978.28;5081733;27;61802;-72
2023/12/19 04:22:33;;;;;;;;;25.25;17.25;;;;;-146.67;58.93;76982.25;5081863;27;62653;-72
2023/12/19 04:24:58;;;;;;;;;21.50;16.25;;;;;-146.67;58.62;76996.25;5082176;27;61754;-72
2023/12/19 04:27:24;;;;;;;;;22.50;15.00;;;;;-146.67;58.82;76998.25;5081523;27;61808;-72
2023/12/19 04:29:50;;;;;;;;;22.00;17.75;;;;;-146.67;58.91;76990.25;5083042;27;61849;-72
2023/12/19 04:32:16;;;;;;;;;19.00;17.00;;;;;-146.67;58.86;76988.25;5081479;27;62643;-72
2023/12/19 04:34:41;;;;;;;;;24.25;18.25;;;;;-146.67;58.69;76980.25;5082026;27;61960;-72
2023/12/19 04:37:06;;;;;;;;;22.00;15.00;;;;;-146.67;58.80;76990.25;5081831;27;61870;-72
2023/12/19 04:39:32;;;;;;;;;18.75;16.25;;;;;-146.67;58.57;76990.25;5082125;27;61762;-72
2023/12/19 04:41:59;;;;;;;;;19.25;16.00;;;;;-146.67;58.99;76980.25;5080849;28;61816;-72
2023/12/19 04:44:25;;;;;;;;;19.75;17.50;;;;;-146.67;59.02;76974.28;5082128;27;61918;-72
2023/12/19 04:46:50;;;;;;;;;18.25;13.75;;;;;-146.67;59.10;76968.28;5081946;28;61781;-72
2023/12/19 04:49:16;;;;;;;;;23.00;15.75;;;;;-146.67;58.52;76956.28;5081506;27;61829;-72
2023/12/19 04:51:41;;;;;;;;;26.75;16.25;;;;;-146.67;58.59;76956.28;5081374;28;61835;-72
2023/12/19 04:54:08;;;;;;;;;24.00;14.25;;;;;-146.67;58.28;76964.28;5081664;27;61825;-72
2023/12/19 04:56:35;;;;;;;;;26.50;18.00;;;;;-146.67;58.72;76956.28;5081097;27;61952;-72
2023/12/19 04:59:01;;;;;;;;;17.25;15.50;;;;;-146.67;58.80;76946.31;5079323;28;61801;-72
2023/12/19 05:01:27;;;;;;;;;19.50;14.75;;;;;-146.67;58.69;76944.31;5079169;28;64686;-72
2023/12/19 05:03:52;;;;;;;;;17.50;14.00;;;;;-146.67;58.58;76946.31;5081766;27;61958;-72
2023/12/19 05:06:17;;;;;;;;;21.50;15.00;;;;;-146.67;58.87;76938.31;5081812;27;62079;-72
2023/12/19 05:08:45;;;;;;;;;23.50;17.00;;;;;-146.67;58.60;76940.31;5081719;27;61834;-72
2023/12/19 05:11:10;;;;;;;;;20.25;15.50;;;;;-146.67;59.05;76940.31;5080493;27;62439;-72
2023/12/19 05:13:36;;;;;;;;;24.00;19.50;;;;;-146.67;58.82;76938.31;5081375;28;61708;-72
2023/12/19 05:16:15;;;;;;;;;14.75;14.50;;;;;-146.67;59.13;76944.31;5063479;28;61945;-72
2023/12/19 05:18:41;;;;;;;;;16.50;13.50;;;;;-146.67;58.99;76926.34;5081807;28;61795;-72
2023/12/19 05:21:08;;;;;;;;;18.25;11.00;;;;;-146.67;58.64;76942.31;5062448;28;63567;-72
2023/12/19 05:23:38;;;;;;;;;18.50;14.75;;;;;-146.67;59.39;76934.31;5081340;28;61770;-72
2023/12/19 05:26:05;;;;;;;;;14.25;13.00;;;;;-146.67;59.93;76984.25;5081129;28;62034;-72
2023/12/19 05:28:31;;;;;;;;;17.25;15.00;;;;;-146.67;60.78;76984.25;5081518;28;61770;-72
2023/12/19 05:30:56;;;;;;;;;23.50;11.00;;;;;-146.67;60.45;76970.28;5080920;28;61827;-72
2023/12/19 05:33:26;;;;;;;;;22.25;15.25;;;;;-146.67;60.76;76966.28;5080863;28;61857;-72
2023/12/19 05:35:52;;;;;;;;;19.75;14.75;;;;;-146.67;60.53;76956.28;5073335;28;61941;-72
2023/12/19 05:38:18;;;;;;;;;15.50;15.25;;;;;-146.67;60.47;76964.28;5060351;28;61795;-72
2023/12/19 05:40:44;;;;;;;;;19.75;14.75;;;;;-146.67;60.26;76978.28;5059768;28;61977;-72
2023/12/19 05:43:09;;;;;;;;;21.50;15.00;;;;;-146.67;60.56;76978.28;5061177;28;62300;-72
2023/12/19 05:45:35;;;;;;;;;19.75;14.00;;;;;-146.67;60.67;76990.25;5060670;28;61783;-72
2023/12/19 05:48:00;;;;;;;;;18.00;14.00;;;;;-146.67;60.26;76988.25;5043336;28;61987;-72
2023/12/19 05:50:26;;;;;;;;;13.00;12.00;;;;;-146.67;60.34;76964.28;5041387;28;61887;-72
2023/12/19 05:52:52;;;;;;;;;24.75;15.00;;;;;-146.67;60.72;76964.28;5043906;28;61922;-72
2023/12/19 05:55:19;;;;;;;;;14.00;12.50;;;;;-146.67;60.40;76954.28;5044087;28;61760;-72
2023/12/19 05:57:45;;;;;;;;;18.75;13.75;;;;;-146.67;60.58;76982.25;5044042;28;61951;-72
2023/12/19 06:00:11;;;;;;;;;16.75;14.50;;;;;-146.67;60.04;76930.31;5051560;28;62851;-72
2023/12/19 06:02:37;;;;;;;;;15.00;10.50;;;;;-146.67;59.53;76918.34;5064322;28;62032;-72
2023/12/19 06:05:07;;;;;;;;;18.75;13.50;;;;;-146.67;59.17;76916.34;5063976;28;61839;-72
2023/12/19 06:07:36;;;;;;;;;18.25;11.50;;;;;-146.67;59.13;76900.34;5062596;28;61823;-72
2023/12/19 06:10:02;;;;;;;;;20.00;16.50;;;;;-146.67;59.07;76900.34;5062909;28;61802;-72
2023/12/19 06:12:28;;;;;;;;;15.25;15.25;;;;;-146.67;59.07;76912.34;5069145;28;61971;-73
2023/12/19 06:14:53;;;;;;;;;24.00;14.25;;;;;-146.67;59.26;76922.34;5084197;28;61965;-73
2023/12/19 06:17:19;;;;;;;;;13.00;11.50;;;;;-146.67;59.16;76920.34;5082794;28;61911;-73
2023/12/19 06:19:44;;;;;;;;;15.75;15.00;;;;;-146.67;59.32;76930.31;5082241;28;61730;-74
2023/12/19 06:22:10;;;;;;;;;17.00;11.00;;;;;-146.67;59.11;76924.34;5083371;28;61965;-73
2023/12/19 06:24:35;;;;;;;;;24.25;17.25;;;;;-146.67;59.44;76922.34;5101010;27;62290;-72
2023/12/19 06:27:01;;;;;;;;;18.50;13.25;;;;;-146.67;59.49;76932.31;5082686;28;61941;-73
2023/12/19 06:29:26;;;;;;;;;21.75;18.50;;;;;-146.67;59.38;76934.31;5083225;28;63127;-73
2023/12/19 06:31:51;;;;;;;;;21.50;18.00;;;;;-146.67;59.49;76940.31;5083566;28;61898;-72
2023/12/19 06:34:17;;;;;;;;;21.75;17.25;;;;;-146.67;59.56;76936.31;5083434;28;61778;-72
2023/12/19 06:36:42;;;;;;;;;18.25;14.00;;;;;-146.67;59.24;76932.31;5083526;27;61913;-72
2023/12/19 06:39:08;;;;;;;;;21.75;14.50;;;;;-146.67;59.62;76940.31;5083281;27;63075;-72
2023/12/19 06:41:34;;;;;;;;;22.50;15.00;;;;;-146.67;59.43;76942.31;5087560;27;62059;-72
2023/12/19 06:43:59;;;;;;;;;20.25;14.25;;;;;-146.67;59.47;76938.31;5071818;28;62243;-71
2023/12/19 06:46:26;;;;;;;;;23.00;19.50;;;;;-146.67;59.37;76930.31;5075071;28;61933;-71
2023/12/19 06:48:57;;;;;;;;;18.75;14.75;;;;;-146.67;59.76;76930.31;5062380;28;61892;-72
2023/12/19 06:51:26;;;;;;;;;19.75;15.75;;;;;-146.67;59.93;76928.31;5062436;28;61825;-72
2023/12/19 06:53:54;;;;;;;;;18.25;14.75;;;;;-146.67;59.22;76922.34;5082307;28;61893;-72
2023/12/19 06:56:20;;;;;;;;;23.25;19.25;;;;;-146.67;59.24;76920.34;5080919;28;61935;-72
2023/12/19 06:58:45;;;;;;;;;22.00;16.75;;;;;-146.67;59.30;76916.34;5081639;28;62376;-72
2023/12/19 07:01:10;;;;;;;;;20.75;17.00;;;;;-146.67;59.09;76916.34;5082191;28;61926;-72
2023/12/19 07:03:36;;;;;;;;;19.25;17.00;;;;;-146.67;59.21;76902.34;5078143;28;61790;-71
2023/12/19 07:06:02;;;;;;;;;21.00;16.75;;;;;-146.67;59.15;76890.38;5062339;28;62069;-72
2023/12/19 07:08:31;;;;;;;;;13.50;12.00;;;;;-146.67;58.75;76880.38;5075115;27;61884;-72
2023/12/19 07:10:57;;;;;;;;;17.25;15.25;;;;;-146.67;59.10;76874.38;5103243;27;61751;-72
2023/12/19 07:13:22;;;;;;;;;18.00;16.25;;;;;-146.67;58.67;76876.38;5102151;27;61714;-72
2023/12/19 07:15:48;;;;;;;;;16.50;16.50;;;;;-146.67;59.00;76870.41;5103498;27;61918;-72
2023/12/19 07:18:13;;;;;;;;;18.00;15.00;;;;;-146.67;59.05;76854.41;5103104;27;61681;-72
2023/12/19 07:20:39;;;;;;;;;19.25;14.25;;;;;-146.67;59.14;76852.41;5102338;27;61725;-72
2023/12/19 07:23:04;;;;;;;;;18.75;15.25;;;;;-146.67;58.64;76850.41;5103225;27;61730;-72
2023/12/19 07:25:29;;;;;;;;;22.25;17.75;;;;;-146.67;58.14;76858.41;5103619;27;61741;-72
2023/12/19 07:27:56;;;;;;;;;23.75;15.25;;;;;-146.67;58.65;76854.41;5102139;27;62063;-72
2023/12/19 07:30:22;;;;;;;;;17.25;15.50;;;;;-146.67;58.20;76852.41;5103418;27;61978;-72
2023/12/19 07:32:53;;;;;;;;;19.00;16.25;;;;;-146.67;58.72;76848.41;5103287;27;62103;-72
2023/12/19 07:35:19;;;;;;;;;15.25;15.00;;;;;-146.67;58.40;76854.41;5102676;27;61628;-72
2023/12/19 07:37:45;;;;;;;;;22.75;16.25;;;;;-146.67;58.50;76840.44;5102194;27;62643;-72
2023/12/19 07:40:12;;;;;;;;;23.75;20.00;;;;;-146.67;58.55;76840.44;5103149;27;61917;-72
2023/12/19 07:42:38;;;;;;;;;16.50;15.75;;;;;-146.67;58.24;76848.41;5102638;27;61810;-71
2023/12/19 07:45:06;;;;;;;;;15.00;14.00;;;;;-146.67;58.53;76866.41;5083085;27;61860;-71
2023/12/19 07:47:32;;;;;;;;;19.50;15.00;;;;;-146.67;58.16;76844.44;5080275;28;63680;-71
2023/12/19 07:49:57;;;;;;;;;18.75;17.75;;;;;-146.67;58.31;76842.44;5081002;27;61857;-71
2023/12/19 07:52:22;;;;;;;;;21.00;15.75;;;;;-146.67;58.10;76840.44;5082377;27;61806;-71
2023/12/19 07:54:54;;;;;;;;;21.50;16.00;;;;;-146.67;58.41;76840.44;5082010;27;61818;-71
2023/12/19 07:57:20;;;;;;;;;14.00;14.00;;;;;-146.67;58.24;76830.44;5081331;27;61985;-72
2023/12/19 07:59:46;;;;;;;;;19.75;17.00;;;;;-146.67;58.47;76828.44;5078577;27;61830;-71
2023/12/19 08:02:11;;;;;;;;;18.75;16.50;;;;;-146.67;58.52;76826.44;5082468;27;61805;-71
2023/12/19 08:04:37;;;;;;;;;19.50;15.00;;;;;-146.67;58.53;76822.44;5081285;28;62046;-72
2023/12/19 08:07:04;;;;;;;;;23.00;16.00;;;;;-146.67;58.48;76824.44;5082028;27;62596;-72
2023/12/19 08:09:29;;;;;;;;;19.75;12.25;;;;;-146.67;58.20;76824.44;5081971;27;62032;-71
2023/12/19 08:11:56;;;;;;;;;21.50;14.50;;;;;-146.67;58.59;76828.44;5081410;27;61869;-72
2023/12/19 08:14:24;;;;;;;;;16.75;15.25;;;;;-146.67;58.45;76832.44;5081662;27;62156;-71
2023/12/19 08:16:50;;;;;;;;;15.50;10.25;;;;;-146.67;58.59;76820.44;5081818;28;63134;-71
2023/12/19 08:19:16;;;;;;;;;16.00;15.00;;;;;-146.67;58.51;76816.47;5096967;27;62122;-72
2023/12/19 08:21:52;;;;;;;;;19.25;14.75;;;;;-146.67;58.06;76808.47;5082769;28;61886;-71
2023/12/19 08:24:18;;;;;;;;;20.50;17.00;;;;;-146.67;57.88;76810.47;5082430;27;61937;-71
2023/12/19 08:26:50;;;;;;;;;15.50;13.00;;;;;-146.67;57.80;76810.47;5062863;28;62778;-71
2023/12/19 08:29:17;;;;;;;;;17.75;15.00;;;;;-146.67;57.92;76806.47;5062139;28;61938;-73
2023/12/19 08:31:44;;;;;;;;;16.50;14.75;;;;;-146.67;57.92;76792.50;5082522;28;61906;-71
2023/12/19 08:34:09;;;;;;;;;16.25;15.00;;;;;-146.67;57.62;76792.50;5081976;28;61927;-72
2023/12/19 08:36:35;;;;;;;;;19.25;18.00;;;;;-146.67;58.09;76790.50;5081361;28;62051;-72
2023/12/19 08:39:00;;;;;;;;;18.75;15.50;;;;;-146.67;57.96;76786.50;5081734;28;61782;-71
2023/12/19 08:41:26;;;;;;;;;29.00;16.75;;;;;-146.67;57.77;76780.50;5081961;27;61860;-71
2023/12/19 08:43:52;;;;;;;;;16.00;12.75;;;;;-146.67;57.59;76780.50;5082537;28;61982;-71
2023/12/19 08:46:18;;;;;;;;;19.50;15.75;;;;;-146.67;57.74;76778.50;5080090;27;62074;-71
2023/12/19 08:48:43;;;;;;;;;19.00;16.00;;;;;-146.67;57.96;76770.50;5076688;28;61918;-71
2023/12/19 08:51:10;;;;;;;;;18.50;16.25;;;;;-146.67;57.80;76772.50;5080747;28;63055;-71
2023/12/19 08:53:35;;;;;;;;;13.25;10.75;;;;;-146.67;58.12;76772.50;5081594;27;61774;-71
2023/12/19 08:56:01;;;;;;;;;16.50;15.25;;;;;-146.67;57.80;76778.50;5067035;28;61983;-71
2023/12/19 08:58:26;;;;;;;;;16.50;14.00;;;;;-146.67;58.03;76764.53;5079185;28;61973;-72
2023/12/19 09:00:51;;;;;;;;;21.00;15.00;;;;;-146.67;57.96;76758.53;5075565;28;61926;-72
2023/12/19 09:03:17;;;;;;;;;10.75;9.50;;;;;-146.67;57.97;76754.53;5080524;27;62356;-72
2023/12/19 09:05:42;;;;;;;;;22.00;15.75;;;;;-146.67;58.00;76738.56;5079484;28;62721;-72
2023/12/19 09:08:07;;;;;;;;;22.50;16.75;;;;;-146.67;57.56;76732.56;5081556;28;61712;-72
2023/12/19 09:10:33;;;;;;;;;21.50;15.50;;;;;-146.67;57.61;76730.56;5079796;28;61961;-72
2023/12/19 09:12:59;;;;;;;;;17.25;16.00;;;;;-146.67;57.32;76726.56;5081594;28;61813;-72
2023/12/19 09:15:24;;;;;;;;;19.75;15.50;;;;;-146.67;57.36;76720.56;5080873;28;62054;-72
2023/12/19 09:17:49;;;;;;;;;16.50;12.75;;;;;-146.67;57.46;76708.59;5081443;28;61924;-72
2023/12/19 09:20:15;;;;;;;;;16.00;12.00;;;;;-146.67;57.31;76716.59;5081401;27;62164;-72
2023/12/19 09:22:40;;;;;;;;;12.00;7.00;;;;;-146.67;57.48;76720.56;5081899;27;62296;-72
2023/12/19 09:25:13;;;;;;;;;10.75;7.75;;;;;-146.67;57.62;76724.56;5083960;27;62990;-72
2023/12/19 09:27:40;;;;;;;;;19.25;12.75;;;;;-146.67;57.46;76716.59;5084718;28;61847;-72
2023/12/19 09:30:06;;;;;;;;;20.75;16.00;;;;;-146.67;57.17;76718.56;5085429;27;61996;-72
2023/12/19 09:32:31;;;;;;;;;23.25;15.75;;;;;-146.67;57.51;76716.59;5065570;28;61994;-72
2023/12/19 09:34:56;;;;;;;;;15.75;11.75;;;;;-146.67;57.48;76700.59;5068381;27;61837;-72
2023/12/19 09:37:26;;;;;;;;;16.75;14.75;;;;;-146.67;57.28;76690.63;5070147;28;61781;-72
2023/12/19 09:39:55;;;;;;;;;21.00;15.75;;;;;-146.67;57.02;76680.63;5081631;28;61703;-72
2023/12/19 09:42:21;;;;;;;;;16.25;14.75;;;;;-146.67;57.28;76674.63;5070850;28;62141;-72
2023/12/19 09:44:50;;;;;;;;;23.00;17.75;;;;;-146.67;56.88;76666.66;5083791;28;61895;-72
2023/12/19 09:47:23;;;;;;;;;18.50;16.50;;;;;-146.67;56.76;76658.66;5083204;28;61787;-72
2023/12/19 09:49:52;;;;;;;;;16.50;12.25;;;;;-146.67;56.83;76662.66;5083859;28;62081;-72
2023/12/19 09:52:21;;;;;;;;;13.50;10.25;;;;;-146.67;56.81;76658.66;5070518;27;61937;-72
2023/12/19 09:54:49;;;;;;;;;19.75;16.00;;;;;-146.67;56.54;76654.66;5063469;28;61909;-72
2023/12/19 09:57:16;;;;;;;;;19.50;15.00;;;;;-146.67;56.88;76654.66;5064049;28;62023;-72
2023/12/19 09:59:43;;;;;;;;;21.25;16.25;;;;;-146.67;56.77;76646.66;5079549;28;61847;-72
2023/12/19 10:02:09;;;;;;;;;16.50;15.00;;;;;-146.67;56.99;76648.66;5084619;27;61909;-72
2023/12/19 10:04:34;;;;;;;;;22.50;13.50;;;;;-146.67;56.88;76648.66;5083695;27;62569;-72
2023/12/19 10:07:00;;;;;;;;;16.75;14.00;;;;;-146.67;56.95;76646.66;5084457;28;61829;-72
2023/12/19 10:09:26;;;;;;;;;20.00;15.75;;;;;-146.67;56.80;76632.69;5080155;27;61750;-73
2023/12/19 10:12:09;;;;;;;;;16.00;12.50;;;;;-146.67;56.97;76626.69;5083523;28;62012;-72
2023/12/19 10:14:34;;;;;;;;;17.75;12.25;;;;;-146.67;56.58;76610.72;5078638;28;63896;-72
2023/12/19 10:17:04;;;;;;;;;18.25;15.25;;;;;-146.67;56.86;76584.75;5062457;28;61786;-72
2023/12/19 10:19:30;;;;;;;;;12.25;11.50;;;;;-146.67;56.27;76582.75;5065761;28;63108;-72
2023/12/19 10:22:06;;;;;;;;;12.50;10.50;;;;;-146.67;56.41;76552.78;5084233;28;61917;-72
2023/12/19 10:24:31;;;;;;;;;15.75;11.75;;;;;-146.67;56.03;76550.78;5083532;27;61820;-72
2023/12/19 10:27:01;;;;;;;;;18.00;13.50;;;;;-146.67;56.01;76536.81;5083667;28;61964;-72
2023/12/19 10:29:28;;;;;;;;;20.00;13.00;;;;;-146.67;55.65;76512.84;5083777;28;61916;-72
2023/12/19 10:31:54;;;;;;;;;12.00;11.00;;;;;-146.67;55.55;76506.84;5099843;27;61768;-72
2023/12/19 10:34:22;;;;;;;;;17.50;13.25;;;;;-146.67;55.65;76496.84;5099017;27;63817;-72
2023/12/19 10:36:48;;;;;;;;;17.00;12.50;;;;;-146.67;55.36;76504.84;5084432;27;62032;-72
2023/12/19 10:39:18;;;;;;;;;9.50;8.00;;;;;-146.67;55.53;76518.81;5083873;28;61900;-72
2023/12/19 10:41:43;;;;;;;;;11.00;11.00;;;;;-146.67;55.63;76524.81;5083817;27;61978;-72
2023/12/19 10:44:12;;;;;;;;;15.75;12.25;;;;;-146.67;55.90;76528.81;5082857;28;61934;-72
2023/12/19 10:46:38;;;;;;;;;12.50;11.50;;;;;-146.67;56.00;76532.81;5099452;27;61947;-72
2023/12/19 10:49:04;;;;;;;;;18.75;13.25;;;;;-146.67;56.13;76534.81;5078488;27;61797;-72
2023/12/19 10:51:37;;;;;;;;;13.75;12.50;;;;;-146.67;56.48;76528.81;5063671;28;61757;-72
2023/12/19 10:54:05;;;;;;;;;12.75;11.00;;;;;-146.67;56.52;76520.81;5075878;28;61667;-72
2023/12/19 10:56:37;;;;;;;;;18.50;13.50;;;;;-146.67;56.54;76516.84;5083108;28;61956;-72